Time;durP1;ratioP1;P1;durP2;ratioP2;P2;SDS_P1;SDS_P2;PMS_P1;PMS_P2;Temp;Humidity;BMP_temperature;BMP_pressure;BME280_temperature;BME280_humidity;BME280_pressure;Samples;Min_cycle;Max_cycle;Signal;HPM_P1;HPM_P2
2021/12/15 00:02:19;;;;;;;18.55;10.52;;;;;;;5.55;100.00;98939.56;5005608;28;20347;-68
2021/12/15 00:04:53;;;;;;;22.65;11.38;;;;;;;5.53;100.00;98925.81;5007675;28;20053;-68
2021/12/15 00:07:22;;;;;;;24.13;12.48;;;;;;;5.26;100.00;98928.41;5008723;28;20132;-68
2021/12/15 00:09:49;;;;;;;25.10;12.00;;;;;;;5.19;100.00;98935.25;5007747;28;20050;-68
2021/12/15 00:12:18;;;;;;;21.48;9.77;;;;;;;5.26;100.00;98925.81;4981349;23;20394;-80
2021/12/15 00:14:46;;;;;;;21.23;10.65;;;;;;;5.30;100.00;98930.97;4971420;28;20059;-80
2021/12/15 00:17:14;;;;;;;23.58;10.60;;;;;;;5.34;100.00;98927.53;4981221;28;20540;-80
2021/12/15 00:19:54;;;;;;;22.52;10.23;;;;;;;5.28;100.00;98924.97;4977204;28;20075;-80
2021/12/15 00:22:22;;;;;;;22.13;11.75;;;;;;;5.22;100.00;98924.94;4956936;28;20134;-80
2021/12/15 00:24:49;;;;;;;23.88;11.95;;;;;;;5.21;100.00;98933.53;4986769;28;20101;-82
2021/12/15 00:27:17;;;;;;;20.63;11.65;;;;;;;4.98;100.00;98928.38;4972707;28;20150;-81
2021/12/15 00:29:46;;;;;;;19.92;11.23;;;;;;;5.07;100.00;98930.97;4957255;28;20142;-81
2021/12/15 00:32:13;;;;;;;21.08;9.43;;;;;;;5.12;100.00;98926.66;4975537;28;20050;-81
2021/12/15 00:34:41;;;;;;;15.55;8.30;;;;;;;5.27;100.00;98938.69;4976918;28;20439;-80
2021/12/15 00:37:09;;;;;;;15.90;8.13;;;;;;;5.29;100.00;98931.84;4975192;28;20610;-82
2021/12/15 00:39:37;;;;;;;14.93;7.63;;;;;;;5.25;100.00;98932.69;4980477;28;20073;-81
2021/12/15 00:42:05;;;;;;;16.38;8.15;;;;;;;5.23;100.00;98921.53;4976234;28;20082;-80
2021/12/15 00:44:32;;;;;;;15.35;9.20;;;;;;;5.32;100.00;98931.84;4962567;28;20170;-80
2021/12/15 00:47:00;;;;;;;13.55;7.47;;;;;;;5.19;100.00;98930.09;4980788;28;20047;-81
2021/12/15 00:49:32;;;;;;;18.63;10.27;;;;;;;5.27;100.00;98925.84;4948109;28;20098;-80
2021/12/15 00:52:00;;;;;;;25.05;10.57;;;;;;;5.06;100.00;98926.66;4970935;28;20507;-80
2021/12/15 00:54:27;;;;;;;24.30;10.95;;;;;;;5.27;100.00;98927.53;4974046;28;20065;-80
2021/12/15 00:56:56;;;;;;;18.92;9.95;;;;;;;5.23;100.00;98927.53;4975535;28;20407;-80
2021/12/15 00:59:24;;;;;;;15.50;8.68;;;;;;;4.92;100.00;98930.94;4978218;28;20047;-80
2021/12/15 01:01:53;;;;;;;13.13;6.13;;;;;;;5.06;100.00;98928.38;4976356;28;20043;-80
2021/12/15 01:04:22;;;;;;;13.45;7.22;;;;;;;4.96;100.00;98936.09;4959502;28;20050;-80
2021/12/15 01:06:53;;;;;;;17.67;9.35;;;;;;;4.86;100.00;98934.38;4984591;28;20073;-81
2021/12/15 01:09:24;;;;;;;20.65;10.70;;;;;;;4.63;100.00;98928.28;4969416;28;20105;-81
2021/12/15 01:20:03;;;;;;;12.38;6.90;;;;;;;4.90;100.00;98937.78;4943224;28;20075;-82
2021/12/15 01:22:44;;;;;;;11.43;6.07;;;;;;;4.79;100.00;98943.78;4977688;28;20492;-80
2021/12/15 01:25:24;;;;;;;13.45;5.88;;;;;;;4.86;100.00;98939.50;4981600;28;20058;-80
2021/12/15 01:27:52;;;;;;;17.15;6.85;;;;;;;4.73;100.00;98932.59;4976217;28;20039;-81
2021/12/15 01:30:23;;;;;;;17.80;9.00;;;;;;;4.68;100.00;98936.88;4975928;28;20187;-80
2021/12/15 01:32:51;;;;;;;17.20;8.80;;;;;;;4.63;100.00;98929.16;4957361;28;20463;-79
2021/12/15 01:35:19;;;;;;;14.98;7.07;;;;;;;4.54;100.00;98926.56;4959367;28;20072;-78
2021/12/15 01:37:48;;;;;;;24.95;11.43;;;;;;;4.36;100.00;98935.91;4975909;28;20648;-81
2021/12/15 01:40:28;;;;;;;27.65;12.13;;;;;;;4.09;100.00;98934.06;4976606;28;20127;-81
2021/12/15 01:42:55;;;;;;;26.48;14.02;;;;;;;4.10;100.00;98940.91;4977093;28;20601;-81
2021/12/15 01:48:13;;;;;;;33.67;15.02;;;;;;;4.07;100.00;98948.63;4978062;28;20043;-81
2021/12/15 01:50:42;;;;;;;30.60;14.60;;;;;;;4.08;100.00;98947.78;4985477;28;20047;-81
2021/12/15 01:53:10;;;;;;;20.90;11.63;;;;;;;4.09;100.00;98946.94;4978930;28;20047;-80
2021/12/15 01:55:38;;;;;;;27.35;12.25;;;;;;;4.17;100.00;98944.38;4976962;28;20062;-81
2021/12/15 01:58:06;;;;;;;32.60;13.63;;;;;;;4.18;100.00;98954.69;4973412;28;20515;-80
2021/12/15 02:00:41;;;;;;;25.70;12.68;;;;;;;4.17;100.00;98955.53;4969973;28;20043;-81
2021/12/15 02:03:09;;;;;;;30.95;14.20;;;;;;;4.17;100.00;98952.09;4976303;28;20133;-80
2021/12/15 02:05:38;;;;;;;28.52;14.82;;;;;;;4.05;100.00;98954.59;4961442;28;20452;-82
2021/12/15 02:08:07;;;;;;;26.55;13.63;;;;;;;4.08;100.00;98949.47;4971646;28;20051;-81
2021/12/15 02:10:37;;;;;;;21.45;10.75;;;;;;;4.13;100.00;98955.53;4972309;28;20065;-81
2021/12/15 02:13:10;;;;;;;16.50;8.93;;;;;;;4.03;100.00;98946.03;4988404;28;20051;-81
2021/12/15 02:15:40;;;;;;;43.78;12.48;;;;;;;4.00;100.00;98946.03;4977363;28;20070;-80
2021/12/15 02:18:10;;;;;;;138.73;16.10;;;;;;;3.78;100.00;98940.75;4960458;28;20510;-80
2021/12/15 02:20:41;;;;;;;49.83;12.73;;;;;;;3.81;100.00;98943.34;4973578;28;20086;-80
2021/12/15 02:23:12;;;;;;;51.83;10.93;;;;;;;3.84;100.00;98945.91;4959615;28;20058;-81
2021/12/15 02:25:40;;;;;;;19.13;9.88;;;;;;;3.80;100.00;98951.03;4975491;28;20442;-80
2021/12/15 02:28:08;;;;;;;33.25;10.38;;;;;;;3.74;100.00;98952.72;4974524;28;20170;-80
2021/12/15 02:30:49;;;;;;;150.40;16.52;;;;;;;3.41;100.00;98955.88;4979220;28;20104;-80
2021/12/15 02:38:41;;;;;;;40.17;11.88;;;;;;;3.37;100.00;98953.28;4977538;28;20055;-82
2021/12/15 02:41:20;;;;;;;102.55;20.08;;;;;;;3.20;100.00;98953.13;4976469;28;20050;-82
2021/12/15 02:44:07;;;;;;;34.97;14.13;;;;;;;3.43;100.00;98961.88;4977909;28;20055;-82
2021/12/15 02:46:36;;;;;;;62.17;17.17;;;;;;;3.34;100.00;98952.41;4975879;28;20046;-82
2021/12/15 02:49:06;;;;;;;52.40;13.63;;;;;;;2.93;100.00;98955.44;4959042;28;20085;-79
2021/12/15 02:51:36;;;;;;;102.50;14.95;;;;;;;2.91;100.00;98952.00;4971593;28;20051;-80
2021/12/15 02:54:07;;;;;;;136.57;17.08;;;;;;;2.67;100.00;98960.31;4971714;28;20050;-80
2021/12/15 02:56:35;;;;;;;82.30;14.98;;;;;;;2.72;100.00;98953.53;4973209;28;20051;-81
2021/12/15 02:59:05;;;;;;;79.13;14.43;;;;;;;2.76;100.00;98945.84;4950640;29;20094;-80
2021/12/15 03:02:05;;;;;;;49.00;15.98;;;;;;;2.71;100.00;98943.25;4966279;28;20050;-80
2021/12/15 03:15:29;;;;;;;38.38;8.55;;;;;;;2.69;100.00;98950.94;4973659;28;20086;-81
2021/12/15 03:18:12;;;;;;;45.22;10.50;;;;;;;2.61;100.00;98949.97;4974396;28;20081;-83
2021/12/15 03:20:48;;;;;;;133.32;14.73;;;;;;;2.53;100.00;98945.59;4968808;28;20161;-81
2021/12/15 03:23:51;;;;;;;280.58;24.15;;;;;;;2.26;100.00;98953.00;4975669;28;20171;-81
2021/12/15 03:26:23;;;;;;;65.80;12.07;;;;;;;2.54;100.00;98953.31;4972115;28;20050;-80
2021/12/15 03:39:27;;;;;;;32.30;12.75;;;;;;;2.69;100.00;98944.91;4973165;28;20105;-80
2021/12/15 03:42:01;;;;;;;49.78;13.60;;;;;;;2.52;100.00;98944.75;4971481;28;20110;-81
2021/12/15 03:44:31;;;;;;;35.40;12.25;;;;;;;2.57;100.00;98943.09;4969311;28;20055;-80
2021/12/15 03:47:01;;;;;;;35.55;10.75;;;;;;;2.15;100.00;98940.88;4973938;28;20114;-81
2021/12/15 03:49:28;;;;;;;32.92;8.93;;;;;;;2.12;100.00;98951.06;4972904;28;20047;-80
2021/12/15 03:51:56;;;;;;;62.75;10.98;;;;;;;2.11;100.00;98947.66;4985193;28;20058;-80
2021/12/15 03:54:23;;;;;;;84.53;10.63;;;;;;;2.06;100.00;98949.31;4956632;28;20046;-81
2021/12/15 03:56:53;;;;;;;170.90;16.65;;;;;;;1.92;100.00;98954.25;4966284;28;20129;-82
2021/12/15 03:59:23;;;;;;;104.13;13.57;;;;;;;1.82;100.00;98955.78;4974939;28;20566;-80
2021/12/15 04:01:51;;;;;;;179.15;19.60;;;;;;;1.75;100.00;98964.22;4975319;28;20065;-82
2021/12/15 04:04:19;;;;;;;94.70;12.73;;;;;;;1.76;100.00;98962.53;4959053;28;20157;-82
2021/12/15 04:06:47;;;;;;;70.35;11.45;;;;;;;1.79;100.00;98960.88;4985360;28;20057;-81
2021/12/15 04:09:15;;;;;;;29.48;8.82;;;;;;;1.97;100.00;98962.84;4968004;28;20051;-81
2021/12/15 04:11:43;;;;;;;105.05;12.27;;;;;;;1.86;100.00;98956.72;4975514;28;20565;-81
2021/12/15 04:14:19;;;;;;;105.18;13.90;;;;;;;1.77;100.00;98939.50;4955785;28;20137;-81
2021/12/15 04:16:59;;;;;;;86.30;12.05;;;;;;;1.65;100.00;98953.00;4973793;28;20113;-80
2021/12/15 04:19:26;;;;;;;110.88;14.23;;;;;;;1.60;100.00;98958.88;4970277;28;20055;-80
2021/12/15 04:21:54;;;;;;;39.63;9.90;;;;;;;1.78;100.00;98954.03;4971181;28;20054;-81
2021/12/15 04:24:25;;;;;;;44.47;8.68;;;;;;;1.67;100.00;98964.13;4969052;28;20058;-80
2021/12/15 04:26:54;;;;;;;78.03;11.48;;;;;;;1.56;100.00;98964.78;4968258;28;20054;-81
2021/12/15 04:29:22;;;;;;;70.18;11.10;;;;;;;1.38;100.00;98966.22;4977821;28;20145;-80
2021/12/15 04:31:59;;;;;;;46.83;9.95;;;;;;;1.52;100.00;98974.09;4973375;28;20054;-82
2021/12/15 04:34:28;;;;;;;26.17;9.07;;;;;;;1.27;100.00;98970.28;4978415;28;20042;-81
2021/12/15 04:36:55;;;;;;;16.98;9.48;;;;;;;1.27;100.00;98970.28;4976774;28;20046;-82
2021/12/15 04:39:26;;;;;;;13.93;8.18;;;;;;;1.14;100.00;98971.78;4997031;28;20165;-82
2021/12/15 04:41:55;;;;;;;13.30;8.43;;;;;;;1.16;100.00;98975.22;4973750;28;20494;-82
2021/12/15 04:44:26;;;;;;;18.90;9.60;;;;;;;1.22;100.00;98979.59;4973788;28;20057;-82
2021/12/15 04:47:04;;;;;;;12.07;7.55;;;;;;;1.28;100.00;98976.25;4995190;28;20069;-80
2021/12/15 04:49:35;;;;;;;11.95;7.35;;;;;;;1.28;100.00;98977.13;4987879;28;20066;-82
2021/12/15 04:52:03;;;;;;;12.10;7.90;;;;;;;1.33;100.00;98980.63;4979068;28;20055;-82
2021/12/15 04:54:31;;;;;;;9.52;6.13;;;;;;;1.36;100.00;98975.56;4974281;28;20071;-81
2021/12/15 04:57:01;;;;;;;13.40;7.05;;;;;;;1.45;100.00;98968.03;4974350;28;20065;-80
2021/12/15 04:59:28;;;;;;;13.85;7.60;;;;;;;1.27;100.00;98975.41;4973189;28;20081;-80
2021/12/15 05:01:56;;;;;;;15.27;9.05;;;;;;;0.88;100.00;98978.13;4980241;28;20090;-80
2021/12/15 05:04:24;;;;;;;10.90;7.05;;;;;;;1.09;100.00;98977.63;4986612;28;20062;-80
2021/12/15 05:06:52;;;;;;;11.18;6.82;;;;;;;1.26;100.00;98973.69;4978910;28;20047;-80
2021/12/15 05:09:20;;;;;;;14.52;8.20;;;;;;;1.19;100.00;98979.53;4981356;28;20428;-80
2021/12/15 05:11:49;;;;;;;13.25;7.18;;;;;;;1.21;100.00;98977.88;4972679;28;20133;-80
2021/12/15 05:14:18;;;;;;;13.80;7.35;;;;;;;1.40;100.00;98977.34;4970831;28;20467;-81
2021/12/15 05:16:45;;;;;;;26.70;12.68;;;;;;;1.23;100.00;98982.19;4970059;28;20110;-81
2021/12/15 05:19:13;;;;;;;29.65;12.85;;;;;;;1.18;100.00;98983.78;4981407;28;20098;-80
2021/12/15 05:21:41;;;;;;;119.75;27.75;;;;;;;0.78;100.00;98983.06;4971759;28;20082;-80
2021/12/15 05:24:30;;;;;;;50.85;19.08;;;;;;;0.71;100.00;98990.56;4974490;28;20093;-82
2021/12/15 05:27:03;;;;;;;205.85;23.88;;;;;;;0.61;100.00;98992.94;4965008;28;20117;-82
2021/12/15 05:29:30;;;;;;;152.98;20.17;;;;;;;0.60;100.00;99000.59;4977824;28;20082;-81
2021/12/15 05:31:58;;;;;;;133.55;18.58;;;;;;;0.60;100.00;99000.59;4976152;28;20109;-81
2021/12/15 05:34:26;;;;;;;160.68;24.40;;;;;;;0.66;100.00;98999.84;4972811;28;20074;-81
2021/12/15 05:36:54;;;;;;;44.42;14.48;;;;;;;0.94;100.00;98998.69;4980521;28;20081;-82
2021/12/15 05:39:22;;;;;;;107.25;13.93;;;;;;;0.63;100.00;98998.94;4981220;28;20046;-82
2021/12/15 05:41:51;;;;;;;88.13;13.98;;;;;;;0.61;100.00;99004.88;4978113;28;20055;-81
2021/12/15 05:44:20;;;;;;;306.05;30.98;;;;;;;0.44;100.00;99007.09;4976913;28;20082;-80
2021/12/15 05:46:48;;;;;;;229.35;32.65;;;;;;;0.44;100.00;99001.97;4974191;28;20043;-81
2021/12/15 05:49:15;;;;;;;86.18;15.75;;;;;;;0.44;100.00;99011.34;4974327;28;20079;-81
2021/12/15 05:51:43;;;;;;;117.47;25.80;;;;;;;0.55;100.00;99004.75;4974406;28;20082;-79
2021/12/15 05:54:10;;;;;;;502.55;76.00;;;;;;;0.44;100.00;99006.22;4972863;28;20107;-81
2021/12/15 05:56:40;;;;;;;155.07;25.58;;;;;;;0.48;100.00;99006.31;4979432;28;20058;-80
2021/12/15 05:59:08;;;;;;;369.52;33.15;;;;;;;0.32;100.00;99011.91;4972694;28;20081;-79
2021/12/15 06:01:35;;;;;;;253.93;22.42;;;;;;;0.19;100.00;99016.78;4946091;29;20090;-79
2021/12/15 06:04:05;;;;;;;174.30;19.75;;;;;;;0.15;100.00;99017.53;4963345;28;20083;-80
2021/12/15 06:06:34;;;;;;;107.80;13.73;;;;;;;0.43;100.00;99028.34;4976484;28;20086;-81
2021/12/15 06:09:05;;;;;;;153.10;22.60;;;;;;;0.50;100.00;99026.78;4976053;28;20051;-80
2021/12/15 06:11:34;;;;;;;69.32;17.10;;;;;;;0.62;100.00;99027.91;4976134;28;20094;-79
2021/12/15 06:14:01;;;;;;;50.15;18.33;;;;;;;0.80;100.00;99026.56;4975341;28;20074;-80
2021/12/15 06:16:29;;;;;;;82.80;19.25;;;;;;;0.81;100.00;99029.13;4974778;28;20051;-80
2021/12/15 06:18:57;;;;;;;51.28;15.80;;;;;;;0.77;100.00;99023.91;4965649;28;20091;-80
2021/12/15 06:21:25;;;;;;;42.97;14.48;;;;;;;0.95;100.00;99036.19;4972086;28;20205;-80
2021/12/15 06:23:53;;;;;;;27.52;10.23;;;;;;;1.04;100.00;99021.88;4975188;28;20103;-80
2021/12/15 06:26:20;;;;;;;26.40;10.23;;;;;;;0.92;100.00;99031.91;4970107;28;20134;-81
2021/12/15 06:28:48;;;;;;;34.70;12.68;;;;;;;0.87;100.00;99030.94;4985273;28;20129;-79
2021/12/15 06:31:17;;;;;;;55.00;16.90;;;;;;;0.76;100.00;99046.06;4959158;28;20130;-80
2021/12/15 06:33:46;;;;;;;271.13;30.50;;;;;;;0.27;100.00;99042.47;4973715;28;20141;-80
2021/12/15 06:36:20;;;;;;;294.65;32.25;;;;;;;0.20;100.00;99046.56;4975123;28;20077;-80
2021/12/15 06:38:50;;;;;;;39.85;13.05;;;;;;;0.45;100.00;99044.56;4975815;28;20138;-80
2021/12/15 06:41:19;;;;;;;25.05;11.13;;;;;;;0.69;100.00;99046.78;4994884;28;20050;-80
2021/12/15 06:43:51;;;;;;;194.65;24.10;;;;;;;0.48;100.00;99046.31;4986515;28;20058;-81
2021/12/15 06:59:44;;;;;;;20.23;9.93;;;;;;;0.44;100.00;99083.72;4978586;28;20047;-80
2021/12/15 07:02:12;;;;;;;18.77;9.07;;;;;;;0.66;100.00;99084.16;4972939;28;20145;-80
2021/12/15 07:04:40;;;;;;;180.85;20.38;;;;;;;0.49;100.00;99094.03;4973360;28;20048;-79
2021/12/15 07:07:07;;;;;;;160.70;22.33;;;;;;;0.41;100.00;99106.63;4955944;28;20058;-79
2021/12/15 07:09:35;;;;;;;113.15;19.15;;;;;;;0.47;100.00;99104.22;4979203;28;20135;-77
2021/12/15 07:12:04;;;;;;;134.77;20.90;;;;;;;0.51;100.00;99102.59;4957242;28;20051;-78
2021/12/15 07:14:32;;;;;;;130.70;23.00;;;;;;;0.43;100.00;99096.44;4976244;28;20154;-78
2021/12/15 07:17:02;;;;;;;166.88;25.02;;;;;;;0.46;100.00;99099.94;4973590;28;20353;-79
2021/12/15 07:19:34;;;;;;;42.85;13.38;;;;;;;0.70;100.00;99106.41;4966802;28;20129;-81
2021/12/15 07:24:34;;;;;;;105.70;30.48;;;;;;;0.77;100.00;99101.44;4978454;28;20070;-79
2021/12/15 07:27:03;;;;;;;87.22;27.15;;;;;;;0.76;100.00;99101.44;4976364;28;20126;-80
2021/12/15 07:29:31;;;;;;;78.28;25.73;;;;;;;0.66;100.00;99102.06;4982307;28;20137;-80
2021/12/15 07:31:59;;;;;;;47.97;17.52;;;;;;;0.77;100.00;99105.72;4984078;28;20122;-79
2021/12/15 07:34:27;;;;;;;26.45;14.52;;;;;;;0.93;100.00;99105.19;4973373;28;20050;-80
2021/12/15 07:36:54;;;;;;;37.58;16.40;;;;;;;1.01;100.00;99105.38;4973370;28;20408;-80
2021/12/15 07:39:47;;;;;;;30.05;13.75;;;;;;;0.97;100.00;99119.75;4965574;28;20090;-80
2021/12/15 07:42:17;;;;;;;38.72;16.60;;;;;;;0.70;100.00;99114.94;4963978;28;20053;-80
2021/12/15 07:44:44;;;;;;;24.02;14.23;;;;;;;0.98;100.00;99124.06;4973066;28;20066;-80
2021/12/15 07:47:11;;;;;;;24.75;13.70;;;;;;;1.14;100.00;99117.56;4976043;28;20078;-81
2021/12/15 07:49:39;;;;;;;30.02;18.20;;;;;;;1.19;100.00;99122.78;4978119;28;20059;-80
2021/12/15 07:52:07;;;;;;;23.10;13.57;;;;;;;1.37;100.00;99120.56;4988725;28;20074;-81
2021/12/15 07:54:36;;;;;;;30.50;15.38;;;;;;;1.40;100.00;99128.28;4976734;28;20093;-80
2021/12/15 07:57:07;;;;;;;30.73;16.35;;;;;;;1.23;100.00;99135.66;4993938;28;20443;-80
2021/12/15 07:59:35;;;;;;;24.70;13.95;;;;;;;1.33;100.00;99134.13;4975542;28;20078;-80
2021/12/15 08:02:04;;;;;;;27.60;14.93;;;;;;;1.34;100.00;99140.94;4972815;28;20100;-79
2021/12/15 08:04:33;;;;;;;29.10;15.23;;;;;;;1.30;100.00;99136.63;4973576;28;20153;-81
2021/12/15 08:07:00;;;;;;;21.08;12.43;;;;;;;1.49;100.00;99129.31;4979701;28;20082;-81
2021/12/15 08:09:28;;;;;;;24.05;13.93;;;;;;;1.50;100.00;99124.19;4973628;28;20099;-80
2021/12/15 08:11:55;;;;;;;22.60;12.43;;;;;;;1.43;100.00;99136.00;4973503;28;20066;-81
2021/12/15 08:14:22;;;;;;;20.15;11.20;;;;;;;1.58;100.00;99139.72;4974212;28;20074;-80
2021/12/15 08:16:50;;;;;;;19.70;10.43;;;;;;;1.74;100.00;99143.41;4974460;28;20050;-81
2021/12/15 08:19:19;;;;;;;20.42;11.27;;;;;;;1.90;100.00;99145.41;4978598;28;20078;-81
2021/12/15 08:21:47;;;;;;;18.35;11.57;;;;;;;1.91;100.00;99146.25;4972551;28;20149;-80
2021/12/15 08:24:14;;;;;;;17.88;11.82;;;;;;;2.02;100.00;99145.59;4970607;28;20133;-81
2021/12/15 08:26:42;;;;;;;16.17;9.88;;;;;;;2.33;100.00;99143.53;4961173;28;20075;-80
2021/12/15 08:29:10;;;;;;;29.88;18.38;;;;;;;1.84;100.00;99147.84;4964650;28;20143;-80
2021/12/15 08:31:38;;;;;;;19.67;11.55;;;;;;;2.12;100.00;99151.72;4976844;28;20082;-81
2021/12/15 08:34:08;;;;;;;20.98;12.90;;;;;;;2.19;100.00;99155.25;4974854;28;20051;-81
2021/12/15 08:36:37;;;;;;;29.40;17.80;;;;;;;2.16;100.00;99160.34;4973816;28;20051;-79
2021/12/15 08:39:06;;;;;;;22.13;14.55;;;;;;;2.00;100.00;99154.94;4972455;28;20054;-81
2021/12/15 08:41:34;;;;;;;24.98;15.05;;;;;;;2.00;100.00;99157.50;4973403;28;20423;-80
2021/12/15 08:44:06;;;;;;;23.67;13.10;;;;;;;2.09;100.00;99165.34;4972891;28;20105;-79
2021/12/15 08:46:39;;;;;;;17.75;11.82;;;;;;;2.42;100.00;99161.63;4973953;28;20128;-80
2021/12/15 08:49:09;;;;;;;17.50;11.48;;;;;;;2.62;100.00;99163.59;4980251;28;20141;-79
2021/12/15 08:51:37;;;;;;;16.83;10.27;;;;;;;2.93;100.00;99162.34;4975620;28;20134;-81
2021/12/15 08:54:08;;;;;;;23.65;12.80;;;;;;;2.51;100.00;99164.31;4972781;28;20070;-83
2021/12/15 08:56:36;;;;;;;19.17;11.63;;;;;;;2.60;100.00;99158.47;4969144;28;20129;-79
2021/12/15 08:59:05;;;;;;;17.38;10.75;;;;;;;2.88;100.00;99154.59;4968641;28;20055;-78
2021/12/15 09:01:32;;;;;;;19.08;10.82;;;;;;;2.96;100.00;99152.09;4968014;28;20429;-81
2021/12/15 09:04:00;;;;;;;21.58;12.18;;;;;;;2.98;100.00;99153.00;4965571;28;20058;-81
2021/12/15 09:06:28;;;;;;;20.00;13.00;;;;;;;3.23;100.00;99155.88;4983906;28;20062;-80
2021/12/15 09:08:56;;;;;;;20.98;12.43;;;;;;;3.09;100.00;99155.69;4975171;28;20074;-81
2021/12/15 09:11:25;;;;;;;26.65;15.32;;;;;;;2.85;100.00;99163.94;4974138;28;20078;-78
2021/12/15 09:13:56;;;;;;;25.20;14.35;;;;;;;3.13;100.00;99154.91;4973176;28;20075;-80
2021/12/15 09:16:24;;;;;;;23.58;13.23;;;;;;;3.19;100.00;99157.53;4975074;28;20074;-81
2021/12/15 09:18:53;;;;;;;24.10;14.50;;;;;;;3.22;100.00;99160.16;4978416;28;20143;-80
2021/12/15 09:21:22;;;;;;;25.98;14.50;;;;;;;3.25;100.00;99161.88;4978637;28;20054;-80
2021/12/15 09:23:50;;;;;;;25.88;15.45;;;;;;;3.34;100.00;99156.88;4974416;28;20093;-80
2021/12/15 09:26:20;;;;;;;26.17;15.23;;;;;;;3.44;100.00;99156.13;4975918;28;20062;-79
2021/12/15 09:28:48;;;;;;;27.30;17.02;;;;;;;3.44;100.00;99160.38;4976579;28;20059;-80
2021/12/15 09:31:16;;;;;;;28.40;16.67;;;;;;;3.67;100.00;99153.81;4974729;28;20081;-80
2021/12/15 09:33:49;;;;;;;31.48;17.77;;;;;;;3.70;100.00;99156.41;4986173;28;20128;-80
2021/12/15 09:36:19;;;;;;;25.25;15.02;;;;;;;3.90;100.00;99161.75;4985623;28;20116;-79
2021/12/15 09:38:51;;;;;;;25.90;15.45;;;;;;;4.05;100.00;99163.59;4978175;28;20082;-80
2021/12/15 09:41:20;;;;;;;28.23;14.77;;;;;;;4.35;100.00;99162.97;4977331;28;20089;-79
2021/12/15 09:43:50;;;;;;;24.00;14.98;;;;;;;4.31;100.00;99155.22;4974820;28;20058;-80
2021/12/15 09:57:28;;;;;;;19.52;12.20;;;;;;;4.60;100.00;99163.16;4975853;28;20444;-80
2021/12/15 10:03:07;;;;;;;21.00;12.35;;;;;;;4.77;100.00;99163.28;4975806;28;20204;-80
2021/12/15 10:19:28;;;;;;;24.00;14.15;;;;;;;5.20;100.00;99154.06;4973643;28;20046;-79
2021/12/15 10:22:26;;;;;;;18.42;10.68;;;;;;;5.26;100.00;99152.38;4984167;28;20100;-80
2021/12/15 10:25:07;;;;;;;17.17;11.57;;;;;;;5.21;100.00;99142.91;4977671;28;20483;-80
2021/12/15 10:27:34;;;;;;;17.83;10.98;;;;;;;5.32;100.00;99140.38;4986376;28;20258;-80
2021/12/15 10:30:25;;;;;;;17.80;10.80;;;;;;;5.49;100.00;99143.00;4978249;28;20046;-79
2021/12/15 10:33:03;;;;;;;14.07;9.88;;;;;;;5.72;100.00;99127.59;4975728;28;20090;-81
2021/12/15 10:35:41;;;;;;;15.63;9.65;;;;;;;5.92;100.00;99134.50;4984411;28;20070;-81
2021/12/15 10:38:15;;;;;;;15.65;10.40;;;;;;;5.86;100.00;99123.34;4972311;28;20397;-81
2021/12/15 10:40:56;;;;;;;15.65;9.02;;;;;;;5.73;100.00;99120.75;4983514;28;20108;-82
2021/12/15 10:43:29;;;;;;;16.77;10.65;;;;;;;5.76;100.00;99131.03;4964008;28;20121;-80
2021/12/15 10:46:04;;;;;;;16.70;11.20;;;;;;;5.98;100.00;99129.41;4981095;28;20034;-81
2021/12/15 10:48:41;;;;;;;18.00;11.90;;;;;;;5.85;100.00;99125.91;4973520;28;20062;-80
2021/12/15 10:51:27;;;;;;;15.43;10.82;;;;;;;6.08;100.00;99119.06;4974107;28;20101;-80
2021/12/15 10:53:57;;;;;;;16.88;10.82;;;;;;;5.88;100.00;99118.16;4975977;28;20063;-80
2021/12/15 10:56:28;;;;;;;15.73;10.50;;;;;;;6.07;100.00;99125.09;4993851;28;20069;-79
2021/12/15 10:59:00;;;;;;;15.82;9.65;;;;;;;5.91;100.00;99123.34;4977496;28;20176;-80
2021/12/15 11:01:44;;;;;;;14.35;8.77;;;;;;;6.01;100.00;99124.22;4977258;28;20082;-81
2021/12/15 11:04:48;;;;;;;18.60;11.93;;;;;;;5.90;100.00;99121.59;4953561;28;20054;-80
2021/12/15 11:07:34;;;;;;;16.00;10.40;;;;;;;6.36;100.00;99115.63;4973153;28;20078;-79
2021/12/15 11:10:08;;;;;;;15.70;10.45;;;;;;;6.21;100.00;99111.34;4976441;28;20566;-81
2021/12/15 11:12:42;;;;;;;13.80;9.10;;;;;;;6.30;100.00;99123.38;4974447;28;20122;-80
2021/12/15 11:15:22;;;;;;;14.48;10.15;;;;;;;6.21;100.00;99113.94;4981631;28;20082;-80
2021/12/15 11:17:51;;;;;;;14.60;9.90;;;;;;;5.96;100.00;99116.50;4971803;28;20085;-80
2021/12/15 11:20:23;;;;;;;14.00;9.80;;;;;;;6.32;100.00;99103.59;4977847;28;20101;-79
2021/12/15 11:22:53;;;;;;;14.23;10.43;;;;;;;6.18;100.00;99101.03;4954673;28;20533;-81
2021/12/15 11:25:28;;;;;;;12.98;8.88;;;;;;;6.39;100.00;99097.59;4974393;28;20569;-80
2021/12/15 11:28:18;;;;;;;13.45;8.82;;;;;;;6.51;100.00;99101.88;4974851;28;20125;-80
2021/12/15 11:34:33;;;;;;;14.02;8.88;;;;;;;5.92;100.00;99107.00;4964733;28;20476;-67
2021/12/15 11:37:01;;;;;;;13.15;8.75;;;;;;;5.92;100.00;99107.00;4970356;28;20058;-67
2021/12/15 11:39:29;;;;;;;12.73;8.70;;;;;;;5.95;100.00;99103.59;4970670;28;20057;-67
2021/12/15 11:41:57;;;;;;;13.15;8.55;;;;;;;5.93;100.00;99101.00;4966406;28;20043;-67
2021/12/15 11:44:27;;;;;;;12.57;9.02;;;;;;;6.10;100.00;99095.03;4961039;28;20138;-66
2021/12/15 11:47:01;;;;;;;11.48;8.27;;;;;;;6.09;100.00;99099.34;4964714;28;20114;-66
2021/12/15 11:49:32;;;;;;;14.73;9.80;;;;;;;5.90;100.00;99095.84;4968329;28;20082;-66
2021/12/15 11:52:00;;;;;;;16.17;10.93;;;;;;;5.73;100.00;99097.56;4971030;28;20046;-67
2021/12/15 11:54:33;;;;;;;15.05;9.70;;;;;;;5.77;100.00;99097.56;4970727;28;20089;-66
2021/12/15 11:57:22;;;;;;;17.20;11.15;;;;;;;5.87;100.00;99096.69;4971522;28;20209;-66
2021/12/15 11:59:55;;;;;;;14.98;10.20;;;;;;;6.03;100.00;99100.19;4966886;28;20141;-67
2021/12/15 12:02:28;;;;;;;18.00;10.90;;;;;;;5.84;100.00;99094.13;4968280;28;20429;-66
2021/12/15 12:05:01;;;;;;;;;;;;;;;5.91;100.00;99083.81;4971606;28;20093;-66
2021/12/15 12:07:30;;;;;;;16.40;8.73;;;;;;;6.22;100.00;99084.69;4971288;28;19926;-66
2021/12/15 12:10:26;;;;;;;15.60;9.05;;;;;;;6.27;100.00;99088.13;4969123;28;20468;-67
2021/12/15 12:13:06;;;;;;;16.25;10.18;;;;;;;6.30;100.00;99093.28;4970102;28;20125;-67
2021/12/15 12:15:37;;;;;;;17.80;11.52;;;;;;;6.28;100.00;99089.84;4971138;28;20058;-67
2021/12/15 12:18:26;;;;;;;16.25;9.10;;;;;;;6.44;100.00;99081.22;4953760;28;20141;-67
2021/12/15 12:21:08;;;;;;;12.63;7.75;;;;;;;6.52;100.00;99070.03;4971077;28;20050;-66
2021/12/15 12:23:37;;;;;;;11.35;6.95;;;;;;;6.68;100.00;99077.75;4968776;28;20447;-66
2021/12/15 12:26:09;;;;;;;10.18;6.55;;;;;;;6.79;100.00;99071.69;4971231;28;20145;-68
2021/12/15 12:28:40;;;;;;;11.25;6.80;;;;;;;7.15;100.00;99070.66;4953849;28;20133;-67
2021/12/15 12:31:15;;;;;;;15.65;10.60;;;;;;;7.07;100.00;99064.66;4965321;28;20046;-66
2021/12/15 12:33:43;;;;;;;19.40;11.88;;;;;;;7.22;100.00;99074.09;4959714;28;20097;-67
2021/12/15 12:36:13;;;;;;;19.15;12.13;;;;;;;7.03;100.00;99065.56;4964842;28;20054;-66
2021/12/15 12:38:55;;;;;;;20.05;13.65;;;;;;;6.78;100.00;99072.56;4954014;28;20055;-67
2021/12/15 12:41:25;;;;;;;23.58;13.68;;;;;;;6.51;100.00;99079.50;4951544;28;20083;-66
2021/12/15 12:43:55;;;;;;;18.13;12.35;;;;;;;6.79;100.00;99074.25;4967916;28;20488;-66
2021/12/15 12:46:34;;;;;;;19.33;13.15;;;;;;;6.64;100.00;99072.59;4950847;28;20400;-67
2021/12/15 13:00:51;;;;;;;20.33;12.45;;;;;;;7.00;100.00;99063.00;4944807;28;20162;-66
2021/12/15 13:03:34;;;;;;;19.98;13.18;;;;;;;7.06;100.00;99056.06;4954122;28;20459;-67
2021/12/15 13:06:07;;;;;;;17.52;10.98;;;;;;;7.01;100.00;99057.81;4962488;28;20065;-67
2021/12/15 13:08:49;;;;;;;18.05;10.23;;;;;;;7.34;100.00;99053.34;4960445;28;20141;-67
2021/12/15 13:11:22;;;;;;;19.23;12.40;;;;;;;7.52;100.00;99049.78;4967564;28;20079;-67
2021/12/15 13:13:54;;;;;;;16.85;11.25;;;;;;;7.60;100.00;99047.16;4960504;28;20142;-67
2021/12/15 13:16:34;;;;;;;16.60;10.90;;;;;;;7.96;100.00;99046.88;4961148;28;20061;-66